メインページ
METAR-TAF:

METAR-TAF

空港 :

ケベック・ジャン・ルサージ国際空港

ケベック・シティー, ケベック州, カナダ

緯度: 46-48N, 経度: 071-23W, 海抜: 70m

現時点の気象観測

当レポートは15分前の11:00(UTC)に作成
北東の風 4kt
気温 10°C
湿度 93%
気圧 1024 hPa
視程: 32.2km
高度1100ftの千切れ雲あり
高度2200ftの曇り

METAR: CYQB 201100Z 04004KT 20SM BKN011 OVC022 10/09 A3025 RMK SF5SC3 SLP247

時間: 07:15 (11:15 UTC)

予報

当レポートは3時間51分前の07:24(UTC)に作成
予報は20日の 07時(UTC)から 21日の 06時(UTC)まで有効
東/北東の風 7kt
視程: 8.0km
高度800ftの曇り
小霧雨, 靄
20日の 07時(UTC)から 20日の 14時(UTC)まで一時的に
視程: 10km
高度1000ftの曇り
20日の 1400時(UTC)から
北東の風 5kt
視程: 10km
高度1200ftの曇り
20日の 14時(UTC)から 20日の 15時(UTC)まで一時的に
高度1200ftの雲は散在している
高度4000ftの曇り
20日の 1500時(UTC)から
変向風 3kt
視程: 10km
高度1500ftの雲は散在している
高度4000ftの千切れ雲あり
高度11000ftの千切れ雲あり
20日の 1800時(UTC)から
西/南西の風 6kt
視程: 10km
高度4000ftの千切れ雲あり
20日の 2300時(UTC)から
西/南西の風 5kt
視程: 10km
高度5000ftの雲はほとんどない

TAF: CYQB 200724Z 2007/2106 06007KT 5SM -DZ BR OVC008 TEMPO 2007/2014 P6SM NSW OVC010 FM201400 05005KT P6SM OVC012 TEMPO 2014/2015 SCT012 OVC040 FM201500 VRB03KT P6SM SCT015 BKN040 BKN110 FM201800 24006KT P6SM BKN040 FM202300 24005KT P6SM FEW050 RMK NXT FCST BY 201200Z

4,000以上の空港の気象観測と天気予報(METAR報とTAF報)

利用可能な観測所は地図上に黄色い丸と赤い丸で示す。

丸の上にカーソルを重ねると観測所名を参照できる。

次にクリックすると気象観測と天気予報を参照できる。

マップの切り替え:黒色「×」印の緑ボタンをクリックして拡大、「-」印の緑ボタンをクリックして縮小、緑色の三角印をクリックして隣りの地図に切り替え


METAR-TAF: